createdAt,value
2023-01-26T00:01:15.712Z,100254.09
2023-01-26T00:03:42.886Z,100252.13
2023-01-26T00:06:12.484Z,100250.56
2023-01-26T00:08:45.320Z,100244.78
2023-01-26T00:11:15.166Z,100230.63
2023-01-26T00:13:42.448Z,100242.16
2023-01-26T00:16:12.525Z,100222.72
2023-01-26T00:18:40.599Z,100225.56
2023-01-26T00:21:08.879Z,100225.31
2023-01-26T00:23:36.012Z,100226.72
2023-01-26T00:26:02.871Z,100200.28
2023-01-26T00:28:29.789Z,100220.81
2023-01-26T00:31:29.150Z,100236.78
2023-01-26T00:33:56.727Z,100236.41
2023-01-26T00:36:24.321Z,100249.03
2023-01-26T00:38:51.197Z,100236.75
2023-01-26T00:41:36.716Z,100228.16
2023-01-26T00:44:03.747Z,100228.63
2023-01-26T00:46:30.693Z,100219.88
2023-01-26T00:48:57.536Z,100223.53
2023-01-26T00:51:24.339Z,100223.28
2023-01-26T00:53:51.366Z,100215.06
2023-01-26T00:56:19.114Z,100216.38
2023-01-26T00:58:46.734Z,100211.78
2023-01-26T01:01:13.695Z,100198.19
2023-01-26T01:03:42.776Z,100216.38
2023-01-26T01:06:09.724Z,100220.03
2023-01-26T01:08:36.588Z,100212.81
2023-01-26T01:11:05.445Z,100207.91
2023-01-26T01:13:32.482Z,100208.72
2023-01-26T01:15:59.352Z,100186.69
2023-01-26T01:18:26.265Z,100192.31
2023-01-26T01:20:53.192Z,100183.50
2023-01-26T01:23:20.154Z,100183.00
2023-01-26T01:25:47.047Z,100195.63
2023-01-26T01:28:13.833Z,100163.31
2023-01-26T01:30:41.429Z,100168.75
2023-01-26T01:33:08.313Z,100172.50
2023-01-26T01:35:35.867Z,100149.63
2023-01-26T01:38:02.813Z,100165.09
2023-01-26T01:40:29.872Z,100165.78
2023-01-26T01:42:56.938Z,100174.03
2023-01-26T01:45:26.938Z,100164.97
2023-01-26T01:48:02.023Z,100166.03
2023-01-26T01:50:39.315Z,100168.63
2023-01-26T01:53:10.954Z,100152.00
2023-01-26T01:55:37.917Z,100159.78
2023-01-26T01:58:07.085Z,100152.47
2023-01-26T02:00:33.997Z,100140.09
2023-01-26T02:03:16.728Z,100156.00
2023-01-26T02:06:15.936Z,100143.84
2023-01-26T02:08:49.626Z,100141.03
2023-01-26T02:11:27.122Z,100135.00
2023-01-26T02:13:54.730Z,100145.75
2023-01-26T02:16:21.644Z,100131.00
2023-01-26T02:18:48.690Z,100145.97
2023-01-26T02:21:20.447Z,100155.28
2023-01-26T02:23:51.107Z,100143.13
2023-01-26T02:26:23.725Z,100145.41
2023-01-26T02:28:52.333Z,100139.72
2023-01-26T02:31:20.033Z,100129.03
2023-01-26T02:33:48.073Z,100128.28
2023-01-26T02:36:30.061Z,100121.31
2023-01-26T02:39:20.362Z,100124.97
2023-01-26T02:42:08.206Z,100112.47
2023-01-26T02:44:35.308Z,100075.50
2023-01-26T02:47:12.401Z,100094.31
2023-01-26T02:49:51.127Z,100120.25
2023-01-26T02:52:23.291Z,100113.66
2023-01-26T02:55:16.855Z,100106.69
2023-01-26T02:57:45.148Z,100095.84
2023-01-26T03:00:18.248Z,100098.44
2023-01-26T03:02:46.749Z,100091.97
2023-01-26T03:05:14.099Z,100087.34
2023-01-26T03:07:41.424Z,100078.50
2023-01-26T03:10:09.606Z,100089.00
2023-01-26T03:12:37.140Z,100064.25
2023-01-26T03:15:23.951Z,100073.81
2023-01-26T03:17:51.842Z,100081.22
2023-01-26T03:20:36.974Z,100080.16
2023-01-26T03:23:22.256Z,100072.50
2023-01-26T03:26:11.527Z,100064.13
2023-01-26T03:28:38.414Z,100070.38
2023-01-26T03:31:07.533Z,100047.50
2023-01-26T03:33:34.428Z,100065.53
2023-01-26T03:36:01.633Z,100055.28
2023-01-26T03:38:29.633Z,100053.16
2023-01-26T03:41:17.997Z,100058.94
2023-01-26T03:44:03.414Z,100060.09
2023-01-26T03:46:49.066Z,100049.84
2023-01-26T03:49:35.125Z,100042.19
2023-01-26T03:52:20.331Z,100047.72
2023-01-26T03:55:07.003Z,100042.06
2023-01-26T03:57:33.795Z,100042.53
2023-01-26T04:00:00.794Z,100039.00
2023-01-26T04:02:46.729Z,100038.53
2023-01-26T04:05:32.330Z,100033.34
2023-01-26T04:08:23.627Z,100020.03
2023-01-26T04:11:01.423Z,100025.06
2023-01-26T04:13:46.794Z,100017.66
2023-01-26T04:16:41.644Z,100011.28
2023-01-26T04:19:27.549Z,100015.66
2023-01-26T04:21:54.609Z,100020.72
2023-01-26T04:24:22.714Z,100021.09
2023-01-26T04:26:54.173Z,100016.34
2023-01-26T04:29:28.304Z,100002.69
2023-01-26T04:31:55.409Z,100012.34
2023-01-26T04:34:23.243Z,99998.97
2023-01-26T04:36:50.503Z,99996.28
2023-01-26T04:39:18.920Z,100002.00
2023-01-26T04:41:48.825Z,100013.53
2023-01-26T04:44:17.036Z,100009.66
2023-01-26T04:46:44.047Z,100019.31
2023-01-26T04:49:13.253Z,100012.13
2023-01-26T04:51:40.635Z,100011.16
2023-01-26T04:54:08.227Z,99997.72
2023-01-26T04:56:38.536Z,99997.00
2023-01-26T04:59:07.988Z,99994.69
2023-01-26T05:01:37.421Z,99997.88
2023-01-26T05:04:07.975Z,100005.41
2023-01-26T05:06:38.416Z,99996.22
2023-01-26T05:09:06.219Z,99987.38
2023-01-26T05:11:34.962Z,100008.09
2023-01-26T05:14:20.491Z,99996.28
2023-01-26T05:16:57.793Z,99983.94
2023-01-26T05:19:39.524Z,99995.13
2023-01-26T05:22:15.680Z,99989.94
2023-01-26T05:25:02.667Z,99987.00
2023-01-26T05:27:47.201Z,99997.00
2023-01-26T05:30:14.951Z,99991.47
2023-01-26T05:32:43.057Z,99980.78
2023-01-26T05:35:11.047Z,99985.84
2023-01-26T05:37:38.589Z,99981.41
2023-01-26T05:40:06.040Z,99989.31
2023-01-26T05:42:32.992Z,99971.03
2023-01-26T05:45:35.669Z,99972.22
2023-01-26T05:48:02.746Z,99967.09
2023-01-26T05:50:31.329Z,99959.78
2023-01-26T05:53:27.276Z,99977.44
2023-01-26T05:55:54.495Z,99969.53
2023-01-26T05:58:23.867Z,99976.25
2023-01-26T06:00:51.497Z,99965.03
2023-01-26T06:03:24.521Z,99964.13
2023-01-26T06:05:55.350Z,99970.56
2023-01-26T06:08:45.145Z,99975.03
2023-01-26T06:11:43.525Z,99976.25
2023-01-26T06:14:25.683Z,99955.97
2023-01-26T06:16:54.580Z,99974.94
2023-01-26T06:19:21.637Z,99967.47
2023-01-26T06:21:53.544Z,99962.16
2023-01-26T06:24:20.764Z,99979.34
2023-01-26T06:26:49.478Z,99960.66
2023-01-26T06:29:18.009Z,99967.91
2023-01-26T06:31:45.085Z,99961.31
2023-01-26T06:34:12.591Z,99976.31
2023-01-26T06:36:41.829Z,99959.09
2023-01-26T06:39:13.159Z,99943.16
2023-01-26T06:41:40.388Z,99926.47
2023-01-26T06:44:08.782Z,99919.41
2023-01-26T06:46:36.206Z,99935.06
2023-01-26T06:49:04.526Z,99924.94
2023-01-26T06:51:43.265Z,99935.47
2023-01-26T06:54:11.495Z,99919.03
2023-01-26T06:56:53.553Z,99918.28
2023-01-26T06:59:38.298Z,99907.09
2023-01-26T07:02:22.635Z,99915.25
2023-01-26T07:04:50.461Z,99906.19
2023-01-26T07:07:17.617Z,99895.34
2023-01-26T07:09:44.867Z,99902.50
2023-01-26T07:12:11.707Z,99879.38
2023-01-26T07:14:38.625Z,99892.72
2023-01-26T07:17:05.521Z,99877.81
2023-01-26T07:19:33.887Z,99886.59
2023-01-26T07:22:01.526Z,99886.03
2023-01-26T07:24:28.965Z,99888.34
2023-01-26T07:26:56.562Z,99887.19
2023-01-26T07:29:23.363Z,99889.31
2023-01-26T07:31:50.586Z,99900.84
2023-01-26T07:34:17.693Z,99894.16
2023-01-26T07:36:45.626Z,99890.38
2023-01-26T07:39:12.563Z,99868.84
2023-01-26T07:41:39.451Z,99879.97
2023-01-26T07:44:25.615Z,99900.09
2023-01-26T07:46:53.827Z,99910.31
2023-01-26T07:49:20.861Z,99883.63
2023-01-26T07:51:47.929Z,99891.69
2023-01-26T07:54:15.039Z,99877.97
2023-01-26T07:56:41.862Z,99880.69
2023-01-26T07:59:11.391Z,99877.63
2023-01-26T08:01:39.524Z,99888.00
2023-01-26T08:04:07.457Z,99881.56
2023-01-26T08:06:34.298Z,99876.06
2023-01-26T08:09:01.433Z,99879.19
2023-01-26T08:11:28.261Z,99877.13
2023-01-26T08:13:56.118Z,99883.38
2023-01-26T08:16:23.029Z,99879.69
2023-01-26T08:18:50.228Z,99868.66
2023-01-26T08:21:18.644Z,99867.03
2023-01-26T08:23:52.595Z,99871.69
2023-01-26T08:26:20.232Z,99863.13
2023-01-26T08:28:47.701Z,99839.19
2023-01-26T08:31:20.673Z,99856.59
2023-01-26T08:33:50.988Z,99851.13
2023-01-26T08:36:21.730Z,99836.06
2023-01-26T08:38:48.968Z,99854.09
2023-01-26T08:41:16.210Z,99829.69
2023-01-26T08:43:43.475Z,99845.56
2023-01-26T08:46:10.921Z,99851.94
2023-01-26T08:48:38.659Z,99840.03
2023-01-26T08:51:08.084Z,99849.19
2023-01-26T08:53:36.362Z,99849.78
2023-01-26T08:56:05.422Z,99842.88
2023-01-26T08:58:33.832Z,99852.03
2023-01-26T09:01:04.970Z,99853.50
2023-01-26T09:03:31.831Z,99853.75
2023-01-26T09:06:02.206Z,99852.09
2023-01-26T09:08:29.246Z,99840.41
2023-01-26T09:10:56.384Z,99823.13
2023-01-26T09:13:23.633Z,99802.88
2023-01-26T09:15:50.516Z,99811.03
2023-01-26T09:18:18.098Z,99809.84
2023-01-26T09:20:45.304Z,99793.53
2023-01-26T09:23:12.771Z,99770.16
2023-01-26T09:25:40.115Z,99790.59
2023-01-26T09:28:07.258Z,99779.66
2023-01-26T09:30:34.123Z,99751.38
2023-01-26T09:33:02.762Z,99775.56
2023-01-26T09:35:30.817Z,99774.59
2023-01-26T09:37:57.710Z,99762.56
2023-01-26T09:40:55.283Z,99769.56
2023-01-26T09:43:35.791Z,99762.44
2023-01-26T09:46:22.201Z,99750.47
2023-01-26T09:49:11.752Z,99755.59
2023-01-26T09:52:03.589Z,99758.63
2023-01-26T09:54:47.101Z,99758.69
2023-01-26T09:57:17.539Z,99758.63
2023-01-26T09:59:53.445Z,99769.44
2023-01-26T10:02:41.843Z,99757.75
2023-01-26T10:05:19.829Z,99742.75
2023-01-26T10:07:46.951Z,99767.44
2023-01-26T10:10:41.880Z,99737.44
2023-01-26T10:13:13.027Z,99743.47
2023-01-26T10:15:43.256Z,99750.06
2023-01-26T10:18:39.454Z,99734.19
2023-01-26T10:21:07.674Z,99712.53
2023-01-26T10:23:36.163Z,99730.53
2023-01-26T10:26:24.764Z,99712.72
2023-01-26T10:28:53.005Z,99723.13
2023-01-26T10:31:25.011Z,99722.63
2023-01-26T10:33:59.629Z,99712.91
2023-01-26T10:36:29.865Z,99690.94
2023-01-26T10:39:04.783Z,99686.97
2023-01-26T10:41:31.831Z,99672.00
2023-01-26T10:44:01.249Z,99670.44
2023-01-26T10:46:41.258Z,99675.41
2023-01-26T10:49:08.298Z,99675.44
2023-01-26T10:51:37.764Z,99658.75
2023-01-26T10:54:25.711Z,99657.63
2023-01-26T10:57:02.550Z,99653.38
2023-01-26T10:59:46.278Z,99655.31
2023-01-26T11:02:18.775Z,99646.28
2023-01-26T11:05:18.452Z,99638.97
2023-01-26T11:07:48.187Z,99633.81
2023-01-26T11:10:21.059Z,99625.09
2023-01-26T11:12:48.933Z,99613.13
2023-01-26T11:15:21.931Z,99635.47
2023-01-26T11:18:00.172Z,99613.97
2023-01-26T11:20:51.413Z,99621.31
2023-01-26T11:23:32.964Z,99606.06
2023-01-26T11:26:37.034Z,99607.69
2023-01-26T11:29:22.754Z,99600.81
2023-01-26T11:32:04.694Z,99586.69
2023-01-26T11:34:48.172Z,99579.91
2023-01-26T11:37:44.567Z,99580.16
2023-01-26T11:41:03.885Z,99584.56
2023-01-26T11:43:54.584Z,99576.94
2023-01-26T11:46:42.741Z,99572.56
2023-01-26T11:49:17.141Z,99557.03
2023-01-26T11:51:59.998Z,99549.94
2023-01-26T11:54:46.024Z,99541.50
2023-01-26T11:57:54.150Z,99539.88
2023-01-26T12:00:44.177Z,99515.09
2023-01-26T12:03:46.047Z,99520.00
2023-01-26T12:06:27.362Z,99511.25
2023-01-26T12:09:03.279Z,99514.53
2023-01-26T12:11:42.654Z,99509.91
2023-01-26T12:14:21.673Z,99506.63
2023-01-26T12:17:39.464Z,99507.13
2023-01-26T12:20:28.821Z,99499.75
2023-01-26T12:23:02.509Z,99483.69
2023-01-26T12:25:38.387Z,99474.97
2023-01-26T12:28:26.912Z,99482.63
2023-01-26T12:31:14.347Z,99483.69
2023-01-26T12:33:42.163Z,99476.88
2023-01-26T12:36:27.331Z,99479.59
2023-01-26T12:39:08.210Z,99478.81
2023-01-26T12:42:23.276Z,99473.34
2023-01-26T12:45:02.080Z,99466.22
2023-01-26T12:47:44.237Z,99463.25
2023-01-26T12:50:40.263Z,99460.78
2023-01-26T12:53:32.376Z,99473.28
2023-01-26T12:56:19.136Z,99443.31
2023-01-26T12:58:50.305Z,99446.81
2023-01-26T13:01:20.778Z,99466.16
2023-01-26T13:03:55.795Z,99464.25
2023-01-26T13:06:25.812Z,99462.09
2023-01-26T13:09:04.866Z,99461.56
2023-01-26T13:11:47.693Z,99447.16
2023-01-26T13:14:59.355Z,99446.34
2023-01-26T13:17:27.448Z,99448.78
2023-01-26T13:20:00.326Z,99440.63
2023-01-26T13:22:27.118Z,99452.63
2023-01-26T13:24:59.128Z,99448.81
2023-01-26T13:27:28.332Z,99449.88
2023-01-26T13:29:56.250Z,99446.09
2023-01-26T13:32:23.337Z,99454.81
2023-01-26T13:34:58.396Z,99451.53
2023-01-26T13:37:34.700Z,99445.56
2023-01-26T13:40:37.931Z,99439.00
2023-01-26T13:43:28.254Z,99443.13
2023-01-26T13:46:29.583Z,99435.78
2023-01-26T13:48:57.464Z,99430.31
2023-01-26T13:51:27.753Z,99413.44
2023-01-26T13:54:04.737Z,99420.78
2023-01-26T13:56:40.248Z,99405.81
2023-01-26T13:59:14.885Z,99402.81
2023-01-26T14:01:47.623Z,99404.19
2023-01-26T14:04:21.282Z,99393.28
2023-01-26T14:07:10.033Z,99389.75
2023-01-26T14:10:01.508Z,99391.38
2023-01-26T14:12:33.861Z,99376.94
2023-01-26T14:15:04.144Z,99376.13
2023-01-26T14:17:47.253Z,99364.69
2023-01-26T14:20:35.914Z,99368.78
2023-01-26T14:23:13.719Z,99362.25
2023-01-26T14:25:56.968Z,99368.25
2023-01-26T14:28:31.211Z,99358.72
2023-01-26T14:31:03.277Z,99359.81
2023-01-26T14:33:31.076Z,99340.72
2023-01-26T14:36:05.441Z,99357.34
2023-01-26T14:38:44.654Z,99354.91
2023-01-26T14:41:31.977Z,99357.91
2023-01-26T14:44:05.990Z,99346.47
2023-01-26T14:46:55.847Z,99330.13
2023-01-26T14:49:22.603Z,99357.91
2023-01-26T14:51:57.727Z,99353.25
2023-01-26T14:54:28.424Z,99334.47
2023-01-26T14:56:56.255Z,99335.28
2023-01-26T14:59:31.226Z,99333.38
2023-01-26T15:02:10.217Z,99340.47
2023-01-26T15:04:40.576Z,99341.28
2023-01-26T15:07:32.276Z,99320.59
2023-01-26T15:09:59.247Z,99320.84
2023-01-26T15:12:26.819Z,99324.38
2023-01-26T15:14:59.432Z,99324.06
2023-01-26T15:17:41.202Z,99298.25
2023-01-26T15:20:31.286Z,99307.16
2023-01-26T15:22:58.227Z,99294.09
2023-01-26T15:25:27.691Z,99305.53
2023-01-26T15:28:01.279Z,99293.81
2023-01-26T15:30:35.467Z,99292.97
2023-01-26T15:33:02.668Z,99278.78
2023-01-26T15:35:32.540Z,99269.50
2023-01-26T15:38:04.980Z,99258.06
2023-01-26T15:40:33.064Z,99248.53
2023-01-26T15:43:17.935Z,99246.88
2023-01-26T15:45:55.629Z,99240.59
2023-01-26T15:48:31.641Z,99253.66
2023-01-26T15:50:59.175Z,99244.66
2023-01-26T15:53:26.449Z,99239.22
2023-01-26T15:55:55.440Z,99252.81
2023-01-26T15:58:23.701Z,99224.75
2023-01-26T16:00:53.912Z,99232.34
2023-01-26T16:03:22.455Z,99245.97
2023-01-26T16:05:51.247Z,99237.78
2023-01-26T16:08:20.944Z,99225.47
2023-01-26T16:10:47.992Z,99223.03
2023-01-26T16:13:19.086Z,99212.69
2023-01-26T16:16:13.762Z,99218.66
2023-01-26T16:18:46.537Z,99216.28
2023-01-26T16:21:30.268Z,99211.00
2023-01-26T16:23:57.685Z,99211.00
2023-01-26T16:26:26.916Z,99217.84
2023-01-26T16:28:54.497Z,99216.44
2023-01-26T16:31:29.999Z,99200.63
2023-01-26T16:33:57.409Z,99197.25
2023-01-26T16:36:24.630Z,99175.78
2023-01-26T16:38:51.529Z,99196.41
2023-01-26T16:41:32.833Z,99185.22
2023-01-26T16:44:02.682Z,99198.06
2023-01-26T16:46:30.811Z,99185.75
2023-01-26T16:48:58.031Z,99191.66
2023-01-26T16:51:32.244Z,99197.69
2023-01-26T16:53:59.541Z,99176.19
2023-01-26T16:56:26.500Z,99187.84
2023-01-26T16:58:53.939Z,99194.63
2023-01-26T17:01:32.317Z,99179.44
2023-01-26T17:03:59.425Z,99188.00
2023-01-26T17:06:26.994Z,99176.84
2023-01-26T17:08:54.677Z,99173.81
2023-01-26T17:11:28.204Z,99183.28
2023-01-26T17:13:56.449Z,99167.09
2023-01-26T17:16:26.052Z,99164.78
2023-01-26T17:18:53.208Z,99168.56
2023-01-26T17:21:21.188Z,99170.72
2023-01-26T17:23:49.973Z,99164.06
2023-01-26T17:26:18.161Z,99158.84
2023-01-26T17:28:51.183Z,99150.72
2023-01-26T17:31:20.134Z,99150.41
2023-01-26T17:33:48.541Z,99143.88
2023-01-26T17:36:16.863Z,99137.63
2023-01-26T17:38:44.277Z,99137.63
2023-01-26T17:41:13.819Z,99139.34
2023-01-26T17:43:41.047Z,99135.81
2023-01-26T17:46:23.524Z,99140.78
2023-01-26T17:48:51.010Z,99144.44
2023-01-26T17:51:20.552Z,99129.72
2023-01-26T17:53:51.896Z,99149.31
2023-01-26T17:56:19.777Z,99140.25
2023-01-26T17:58:51.772Z,99146.25
2023-01-26T18:01:19.517Z,99127.13
2023-01-26T18:03:46.737Z,99133.97
2023-01-26T18:06:13.718Z,99122.25
2023-01-26T18:08:41.943Z,99124.69
2023-01-26T18:11:11.723Z,99129.78
2023-01-26T18:13:39.383Z,99128.94
2023-01-26T18:16:08.241Z,99112.69
2023-01-26T18:18:35.807Z,99109.72
2023-01-26T18:21:18.675Z,99121.66
2023-01-26T18:23:58.458Z,99112.38
2023-01-26T18:26:28.370Z,99113.66
2023-01-26T18:28:55.936Z,99082.81
2023-01-26T18:31:32.657Z,99096.94
2023-01-26T18:34:01.842Z,99101.66
2023-01-26T18:36:30.826Z,99089.72
2023-01-26T18:39:01.197Z,99101.25
2023-01-26T18:41:31.701Z,99085.19
2023-01-26T18:44:01.071Z,99076.50
2023-01-26T18:46:31.442Z,99079.09
2023-01-26T18:49:01.244Z,99072.88
2023-01-26T18:51:34.005Z,99075.63
2023-01-26T18:54:03.996Z,99076.94
2023-01-26T18:56:32.128Z,99060.97
2023-01-26T18:58:59.921Z,99067.59
2023-01-26T19:01:26.885Z,99041.28
2023-01-26T19:03:59.713Z,99038.66
2023-01-26T19:06:28.659Z,99041.69
2023-01-26T19:08:59.473Z,99040.34
2023-01-26T19:11:34.547Z,99047.19
2023-01-26T19:14:03.507Z,99041.91
2023-01-26T19:16:32.492Z,99029.28
2023-01-26T19:19:00.938Z,99036.38
2023-01-26T19:21:29.101Z,99025.38
2023-01-26T19:23:59.459Z,99025.44
2023-01-26T19:26:32.350Z,99014.22
2023-01-26T19:29:00.126Z,98994.88
2023-01-26T19:31:28.430Z,99002.56
2023-01-26T19:34:00.553Z,98996.22
2023-01-26T19:36:30.328Z,98980.63
2023-01-26T19:38:57.580Z,98977.03
2023-01-26T19:41:26.207Z,98974.22
2023-01-26T19:43:54.139Z,98941.22
2023-01-26T19:46:21.627Z,98952.88
2023-01-26T19:48:49.077Z,98933.69
2023-01-26T19:51:22.166Z,98937.00
2023-01-26T19:53:53.804Z,98930.13
2023-01-26T19:56:33.125Z,98923.03
2023-01-26T19:59:05.245Z,98932.06
2023-01-26T20:01:34.581Z,98923.28
2023-01-26T20:04:04.828Z,98912.69
2023-01-26T20:06:35.378Z,98931.16
2023-01-26T20:09:06.664Z,98931.38
2023-01-26T20:11:35.341Z,98921.84
2023-01-26T20:14:08.661Z,98925.25
2023-01-26T20:16:37.275Z,98932.19
2023-01-26T20:19:04.412Z,98912.84
2023-01-26T20:21:32.572Z,98930.47
2023-01-26T20:24:05.091Z,98926.06
2023-01-26T20:26:34.914Z,98923.09
2023-01-26T20:29:11.019Z,98926.47
2023-01-26T20:31:42.251Z,98928.31
2023-01-26T20:34:09.768Z,98925.06
2023-01-26T20:36:38.568Z,98918.06
2023-01-26T20:39:06.119Z,98910.16
2023-01-26T20:41:36.129Z,98933.38
2023-01-26T20:44:05.414Z,98914.16
2023-01-26T20:46:39.314Z,98904.22
2023-01-26T20:49:10.480Z,98909.50
2023-01-26T20:51:39.564Z,98911.81
2023-01-26T20:54:07.466Z,98912.63
2023-01-26T20:56:46.804Z,98891.66
2023-01-26T20:59:13.924Z,98870.09
2023-01-26T21:01:42.447Z,98880.44
2023-01-26T21:04:10.022Z,98889.63
2023-01-26T21:06:38.166Z,98874.25
2023-01-26T21:09:05.824Z,98862.72
2023-01-26T21:11:32.769Z,98857.25
2023-01-26T21:14:01.863Z,98855.81
2023-01-26T21:16:30.480Z,98852.19
2023-01-26T21:18:57.787Z,98856.97
2023-01-26T21:21:24.998Z,98854.31
2023-01-26T21:23:52.276Z,98841.25
2023-01-26T21:26:22.616Z,98849.66
2023-01-26T21:28:52.090Z,98843.19
2023-01-26T21:31:20.534Z,98866.88
2023-01-26T21:33:48.818Z,98845.28
2023-01-26T21:36:20.446Z,98856.94
2023-01-26T21:38:51.109Z,98853.41
2023-01-26T21:41:46.852Z,98840.53
2023-01-26T21:44:17.510Z,98850.06
2023-01-26T21:46:46.302Z,98842.88
2023-01-26T21:49:13.743Z,98834.16
2023-01-26T21:52:00.002Z,98849.47
2023-01-26T21:54:39.640Z,98838.50
2023-01-26T21:57:29.394Z,98851.00
2023-01-26T21:59:56.757Z,98829.59
2023-01-26T22:02:24.344Z,98831.44
2023-01-26T22:04:51.666Z,98837.09
2023-01-26T22:07:18.782Z,98841.88
2023-01-26T22:09:45.704Z,98812.78
2023-01-26T22:12:12.627Z,98820.28
2023-01-26T22:14:40.271Z,98806.19
2023-01-26T22:17:07.379Z,98798.81
2023-01-26T22:19:34.688Z,98755.91
2023-01-26T22:22:02.478Z,98745.53
2023-01-26T22:24:29.864Z,98749.91
2023-01-26T22:26:56.794Z,98737.53
2023-01-26T22:29:25.670Z,98732.19
2023-01-26T22:31:52.495Z,98730.16
2023-01-26T22:34:19.811Z,98717.84
2023-01-26T22:36:46.904Z,98736.44
2023-01-26T22:39:13.774Z,98738.34
2023-01-26T22:41:40.646Z,98703.97
2023-01-26T22:44:08.261Z,98749.00
2023-01-26T22:46:36.887Z,98754.56
2023-01-26T22:49:05.032Z,98749.69
2023-01-26T22:51:33.167Z,98746.88
2023-01-26T22:54:01.088Z,98728.53
2023-01-26T22:56:28.108Z,98744.53
2023-01-26T22:58:59.674Z,98729.03
2023-01-26T23:01:29.518Z,98730.16
2023-01-26T23:03:57.702Z,98718.72
2023-01-26T23:06:25.822Z,98714.88
2023-01-26T23:08:53.133Z,98699.16
2023-01-26T23:11:23.793Z,98697.16
2023-01-26T23:13:52.493Z,98697.97
2023-01-26T23:16:19.843Z,98698.44
2023-01-26T23:18:46.966Z,98676.91
2023-01-26T23:21:14.510Z,98689.34
2023-01-26T23:23:42.161Z,98691.47
2023-01-26T23:26:11.287Z,98685.59
2023-01-26T23:28:42.768Z,98665.84
2023-01-26T23:31:12.315Z,98681.13
2023-01-26T23:33:39.706Z,98650.81
2023-01-26T23:36:08.420Z,98677.69
2023-01-26T23:38:35.972Z,98663.13
2023-01-26T23:41:05.294Z,98666.78
2023-01-26T23:43:32.431Z,98670.06
2023-01-26T23:45:59.751Z,98686.50
2023-01-26T23:48:26.828Z,98673.75
2023-01-26T23:50:58.938Z,98678.50
2023-01-26T23:53:26.200Z,98644.94
2023-01-26T23:55:53.116Z,98650.00
2023-01-26T23:58:20.420Z,98670.22
